Nord Glory — 3FIA5 — position and weather

sailwx.info

Track history (hours):
 
Tides and Currents Weather Stations Pressure Air Temp Water Temp Dewpoint Dewpoint Depression Visibility Wind Speed Wind Dir Waves Ship Positions

Nord Glory

Last reported at 2017-Jan-20 03:33 UTC. Time now 2017-Feb-20 20:32 UTC.
Position S 29°45' E 032°01'.
Warning: this ship's position is 31 days out of date.

Length 190 m; draft 12.4 m.

Type: Cargo ship. MMSI: 354206000.

Date/timePositionNaut miles runAvg speedWind from/ knotsBaromVisibWave heightAir tempDewpointWater temp
2017-Jan-20 03:33S 29°45' E 032°01'1211.7
2017-Jan-20 02:33S 29°46' E 031°48'1111.3
2017-Jan-20 01:33S 29°47' E 031°35'1111.4
2017-Jan-20 00:33S 29°49' E 031°22'6 5.7
2017-Jan-19 23:33S 29°50' E 031°15'9 9.5
2017-Jan-19 22:33S 29°51' E 031°04'2 2.1
2017-Jan-19 21:31S 29°52' E 031°02'0 0.0
2017-Jan-19 20:31S 29°52' E 031°02'0 0.0
2017-Jan-19 19:31S 29°52' E 031°02'0 0.0
2017-Jan-19 18:31S 29°52' E 031°02'0 0.0
2017-Jan-19 17:31S 29°52' E 031°02'0 0.0
2017-Jan-19 16:31S 29°52' E 031°02'0 0.0
2017-Jan-19 15:31S 29°52' E 031°02'0 0.0
2017-Jan-19 14:31S 29°52' E 031°02'0 0.0
2017-Jan-19 13:31S 29°52' E 031°02'0 0.0
2017-Jan-19 12:32S 29°52' E 031°02'4 4.6
2017-Jan-19 11:34S 29°49' E 031°06'8 7.7
2017-Jan-19 10:34S 29°56' E 031°10'9 9.1
2017-Jan-19 09:34S 30°05' E 031°09'7 6.5
2017-Jan-19 08:34S 30°11' E 031°07'1111.4
2017-Jan-19 07:34S 30°22' E 031°02'1110.7
2017-Jan-19 06:34S 30°32' E 030°59'1010.2
2017-Jan-19 05:32S 30°43' E 030°56'1010.2
2017-Jan-19 04:33S 30°52' E 030°53'10 9.9
2017-Jan-19 03:34S 31°01' E 030°48'13 9.9
2017-Jan-19 02:18S 31°11' E 030°40'8 9.8
2017-Jan-19 01:28S 31°18' E 030°34'  
Track history (hours):
 
Tides and Currents Weather Stations Pressure Air Temp Water Temp Dewpoint Dewpoint Depression Visibility Wind Speed Wind Dir Waves Ship Positions

Nord Glory

Last reported at 2017-Jan-20 03:33 UTC. Time now 2017-Feb-20 20:32 UTC.
Position S 29°45' E 032°01'.
Warning: this ship's position is 31 days out of date.

Length 190 m; draft 12.4 m.

Type: Cargo ship. MMSI: 354206000.

Date/timePositionNaut miles runAvg speedWind from/ knotsBaromVisibWave heightAir tempDewpointWater temp
2017-Jan-20 03:33S 29°45' E 032°01'1211.7
2017-Jan-20 02:33S 29°46' E 031°48'1111.3
2017-Jan-20 01:33S 29°47' E 031°35'1111.4
2017-Jan-20 00:33S 29°49' E 031°22'6 5.7
2017-Jan-19 23:33S 29°50' E 031°15'9 9.5
2017-Jan-19 22:33S 29°51' E 031°04'2 2.1
2017-Jan-19 21:31S 29°52' E 031°02'0 0.0
2017-Jan-19 20:31S 29°52' E 031°02'0 0.0
2017-Jan-19 19:31S 29°52' E 031°02'0 0.0
2017-Jan-19 18:31S 29°52' E 031°02'0 0.0
2017-Jan-19 17:31S 29°52' E 031°02'0 0.0
2017-Jan-19 16:31S 29°52' E 031°02'0 0.0
2017-Jan-19 15:31S 29°52' E 031°02'0 0.0
2017-Jan-19 14:31S 29°52' E 031°02'0 0.0
2017-Jan-19 13:31S 29°52' E 031°02'0 0.0
2017-Jan-19 12:32S 29°52' E 031°02'4 4.6
2017-Jan-19 11:34S 29°49' E 031°06'8 7.7
2017-Jan-19 10:34S 29°56' E 031°10'9 9.1
2017-Jan-19 09:34S 30°05' E 031°09'7 6.5
2017-Jan-19 08:34S 30°11' E 031°07'1111.4
2017-Jan-19 07:34S 30°22' E 031°02'1110.7
2017-Jan-19 06:34S 30°32' E 030°59'1010.2
2017-Jan-19 05:32S 30°43' E 030°56'1010.2
2017-Jan-19 04:33S 30°52' E 030°53'10 9.9
2017-Jan-19 03:34S 31°01' E 030°48'13 9.9
2017-Jan-19 02:18S 31°11' E 030°40'8 9.8
2017-Jan-19 01:28S 31°18' E 030°34'  

Dump ship's entire track history